sensor_id;sensor_type;location;lat;lon;timestamp;P1;durP1;ratioP1;P2;durP2;ratioP2
8857;SDS011;4465;50.904;4.696;2023-09-19T00:00:23;11.10;;;1.80;;
8857;SDS011;4465;50.904;4.696;2023-09-19T00:02:53;9.05;;;1.50;;
8857;SDS011;4465;50.904;4.696;2023-09-19T00:05:23;5.43;;;1.45;;
8857;SDS011;4465;50.904;4.696;2023-09-19T00:07:58;11.02;;;1.85;;
8857;SDS011;4465;50.904;4.696;2023-09-19T00:10:26;8.90;;;1.60;;
8857;SDS011;4465;50.904;4.696;2023-09-19T00:12:57;8.95;;;1.85;;
8857;SDS011;4465;50.904;4.696;2023-09-19T00:15:25;9.18;;;1.58;;
8857;SDS011;4465;50.904;4.696;2023-09-19T00:17:58;7.30;;;1.70;;
8857;SDS011;4465;50.904;4.696;2023-09-19T00:20:24;11.25;;;1.98;;
8857;SDS011;4465;50.904;4.696;2023-09-19T00:22:50;6.65;;;1.23;;
8857;SDS011;4465;50.904;4.696;2023-09-19T00:25:24;5.85;;;1.58;;
8857;SDS011;4465;50.904;4.696;2023-09-19T00:27:52;8.57;;;1.48;;
8857;SDS011;4465;50.904;4.696;2023-09-19T00:32:48;6.25;;;1.40;;
8857;SDS011;4465;50.904;4.696;2023-09-19T00:35:15;8.52;;;1.55;;
8857;SDS011;4465;50.904;4.696;2023-09-19T00:37:44;10.43;;;1.73;;
8857;SDS011;4465;50.904;4.696;2023-09-19T00:40:12;10.77;;;1.77;;
8857;SDS011;4465;50.904;4.696;2023-09-19T00:42:49;9.02;;;1.85;;
8857;SDS011;4465;50.904;4.696;2023-09-19T00:45:16;17.77;;;1.90;;
8857;SDS011;4465;50.904;4.696;2023-09-19T00:50:11;9.90;;;1.70;;
8857;SDS011;4465;50.904;4.696;2023-09-19T00:52:40;10.20;;;2.38;;
8857;SDS011;4465;50.904;4.696;2023-09-19T00:55:10;7.13;;;1.73;;
8857;SDS011;4465;50.904;4.696;2023-09-19T00:57:39;8.50;;;1.85;;
8857;SDS011;4465;50.904;4.696;2023-09-19T01:00:06;10.27;;;1.70;;
8857;SDS011;4465;50.904;4.696;2023-09-19T01:02:37;11.38;;;2.17;;
8857;SDS011;4465;50.904;4.696;2023-09-19T01:05:03;7.30;;;1.70;;
8857;SDS011;4465;50.904;4.696;2023-09-19T01:07:31;11.82;;;1.95;;
8857;SDS011;4465;50.904;4.696;2023-09-19T01:10:03;5.60;;;1.50;;
8857;SDS011;4465;50.904;4.696;2023-09-19T01:15:32;7.82;;;1.67;;
8857;SDS011;4465;50.904;4.696;2023-09-19T01:21:28;7.88;;;2.03;;
8857;SDS011;4465;50.904;4.696;2023-09-19T01:32:05;9.98;;;2.13;;
8857;SDS011;4465;50.904;4.696;2023-09-19T01:37:15;10.10;;;2.13;;
8857;SDS011;4465;50.904;4.696;2023-09-19T01:39:48;9.10;;;1.85;;
8857;SDS011;4465;50.904;4.696;2023-09-19T01:42:31;6.55;;;2.13;;
8857;SDS011;4465;50.904;4.696;2023-09-19T01:49:18;6.20;;;1.55;;
8857;SDS011;4465;50.904;4.696;2023-09-19T01:51:37;8.68;;;1.67;;
8857;SDS011;4465;50.904;4.696;2023-09-19T01:54:18;14.25;;;2.17;;
8857;SDS011;4465;50.904;4.696;2023-09-19T01:59:47;8.75;;;1.90;;
8857;SDS011;4465;50.904;4.696;2023-09-19T02:02:17;10.07;;;2.20;;
8857;SDS011;4465;50.904;4.696;2023-09-19T02:04:48;6.53;;;1.70;;
8857;SDS011;4465;50.904;4.696;2023-09-19T02:07:16;10.93;;;1.85;;
8857;SDS011;4465;50.904;4.696;2023-09-19T02:09:45;14.55;;;2.30;;
8857;SDS011;4465;50.904;4.696;2023-09-19T02:12:13;7.93;;;1.77;;
8857;SDS011;4465;50.904;4.696;2023-09-19T02:14:40;11.10;;;2.15;;
8857;SDS011;4465;50.904;4.696;2023-09-19T02:17:06;10.02;;;1.85;;
8857;SDS011;4465;50.904;4.696;2023-09-19T02:19:32;11.13;;;2.30;;
8857;SDS011;4465;50.904;4.696;2023-09-19T02:21:59;10.73;;;2.30;;
8857;SDS011;4465;50.904;4.696;2023-09-19T02:24:30;10.77;;;2.33;;
8857;SDS011;4465;50.904;4.696;2023-09-19T02:26:56;10.77;;;2.10;;
8857;SDS011;4465;50.904;4.696;2023-09-19T02:29:27;15.75;;;2.20;;
8857;SDS011;4465;50.904;4.696;2023-09-19T02:31:54;10.02;;;1.88;;
8857;SDS011;4465;50.904;4.696;2023-09-19T02:34:21;7.60;;;1.75;;
8857;SDS011;4465;50.904;4.696;2023-09-19T02:36:48;8.75;;;2.00;;
8857;SDS011;4465;50.904;4.696;2023-09-19T02:39:14;12.52;;;2.00;;
8857;SDS011;4465;50.904;4.696;2023-09-19T02:41:40;13.55;;;2.65;;
8857;SDS011;4465;50.904;4.696;2023-09-19T02:44:07;8.63;;;1.97;;
8857;SDS011;4465;50.904;4.696;2023-09-19T02:46:33;9.15;;;1.90;;
8857;SDS011;4465;50.904;4.696;2023-09-19T02:49:01;10.93;;;1.73;;
8857;SDS011;4465;50.904;4.696;2023-09-19T02:51:31;15.50;;;2.38;;
8857;SDS011;4465;50.904;4.696;2023-09-19T02:53:59;16.85;;;2.30;;
8857;SDS011;4465;50.904;4.696;2023-09-19T02:56:27;12.25;;;2.33;;
8857;SDS011;4465;50.904;4.696;2023-09-19T02:58:53;16.02;;;2.33;;
8857;SDS011;4465;50.904;4.696;2023-09-19T03:01:20;9.98;;;2.00;;
8857;SDS011;4465;50.904;4.696;2023-09-19T03:03:46;7.90;;;2.00;;
8857;SDS011;4465;50.904;4.696;2023-09-19T03:06:12;8.10;;;1.92;;
8857;SDS011;4465;50.904;4.696;2023-09-19T03:08:43;9.00;;;1.75;;
8857;SDS011;4465;50.904;4.696;2023-09-19T03:11:10;9.05;;;2.22;;
8857;SDS011;4465;50.904;4.696;2023-09-19T03:13:37;8.90;;;2.10;;
8857;SDS011;4465;50.904;4.696;2023-09-19T03:16:06;7.80;;;1.88;;
8857;SDS011;4465;50.904;4.696;2023-09-19T03:18:35;10.75;;;2.35;;
8857;SDS011;4465;50.904;4.696;2023-09-19T03:21:01;11.45;;;2.03;;
8857;SDS011;4465;50.904;4.696;2023-09-19T03:23:27;16.52;;;2.40;;
8857;SDS011;4465;50.904;4.696;2023-09-19T03:25:56;13.25;;;1.92;;
8857;SDS011;4465;50.904;4.696;2023-09-19T03:28:24;11.07;;;1.92;;
8857;SDS011;4465;50.904;4.696;2023-09-19T03:33:29;10.07;;;2.35;;
8857;SDS011;4465;50.904;4.696;2023-09-19T03:35:57;15.02;;;2.10;;
8857;SDS011;4465;50.904;4.696;2023-09-19T03:38:27;9.05;;;2.42;;
8857;SDS011;4465;50.904;4.696;2023-09-19T03:40:56;13.55;;;2.25;;
8857;SDS011;4465;50.904;4.696;2023-09-19T03:43:21;15.15;;;2.83;;
8857;SDS011;4465;50.904;4.696;2023-09-19T03:45:50;8.93;;;1.90;;
8857;SDS011;4465;50.904;4.696;2023-09-19T03:48:19;9.25;;;1.88;;
8857;SDS011;4465;50.904;4.696;2023-09-19T03:50:47;7.35;;;1.75;;
8857;SDS011;4465;50.904;4.696;2023-09-19T03:53:17;7.78;;;1.92;;
8857;SDS011;4465;50.904;4.696;2023-09-19T03:55:45;3.75;;;1.40;;
8857;SDS011;4465;50.904;4.696;2023-09-19T03:58:14;8.98;;;1.85;;
8857;SDS011;4465;50.904;4.696;2023-09-19T04:00:42;9.85;;;1.52;;
8857;SDS011;4465;50.904;4.696;2023-09-19T04:03:07;10.52;;;1.58;;
8857;SDS011;4465;50.904;4.696;2023-09-19T04:05:34;9.43;;;1.98;;
8857;SDS011;4465;50.904;4.696;2023-09-19T04:08:00;6.03;;;1.90;;
8857;SDS011;4465;50.904;4.696;2023-09-19T04:10:28;12.93;;;2.55;;
8857;SDS011;4465;50.904;4.696;2023-09-19T04:12:58;9.15;;;2.10;;
8857;SDS011;4465;50.904;4.696;2023-09-19T04:15:24;8.90;;;2.38;;
8857;SDS011;4465;50.904;4.696;2023-09-19T04:17:50;8.85;;;1.70;;
8857;SDS011;4465;50.904;4.696;2023-09-19T04:20:19;9.88;;;2.05;;
8857;SDS011;4465;50.904;4.696;2023-09-19T04:22:45;12.68;;;2.53;;
8857;SDS011;4465;50.904;4.696;2023-09-19T04:25:12;10.23;;;2.08;;
8857;SDS011;4465;50.904;4.696;2023-09-19T04:27:38;13.27;;;2.75;;
8857;SDS011;4465;50.904;4.696;2023-09-19T04:30:04;10.00;;;1.98;;
8857;SDS011;4465;50.904;4.696;2023-09-19T04:32:40;12.95;;;2.10;;
8857;SDS011;4465;50.904;4.696;2023-09-19T04:35:07;13.43;;;1.83;;
8857;SDS011;4465;50.904;4.696;2023-09-19T04:37:39;8.18;;;2.00;;
8857;SDS011;4465;50.904;4.696;2023-09-19T04:40:07;8.93;;;2.35;;
8857;SDS011;4465;50.904;4.696;2023-09-19T04:42:42;9.98;;;2.65;;
8857;SDS011;4465;50.904;4.696;2023-09-19T04:45:09;8.35;;;2.55;;
8857;SDS011;4465;50.904;4.696;2023-09-19T04:47:38;7.45;;;1.73;;
8857;SDS011;4465;50.904;4.696;2023-09-19T04:50:08;8.43;;;2.00;;
8857;SDS011;4465;50.904;4.696;2023-09-19T04:52:42;9.18;;;1.70;;
8857;SDS011;4465;50.904;4.696;2023-09-19T04:55:12;16.48;;;2.40;;
8857;SDS011;4465;50.904;4.696;2023-09-19T04:57:48;9.35;;;1.95;;
8857;SDS011;4465;50.904;4.696;2023-09-19T05:00:19;11.18;;;2.10;;
8857;SDS011;4465;50.904;4.696;2023-09-19T05:02:50;13.10;;;2.45;;
8857;SDS011;4465;50.904;4.696;2023-09-19T05:05:24;9.65;;;1.83;;
8857;SDS011;4465;50.904;4.696;2023-09-19T05:07:51;10.20;;;2.13;;
8857;SDS011;4465;50.904;4.696;2023-09-19T05:10:21;11.05;;;2.20;;
8857;SDS011;4465;50.904;4.696;2023-09-19T05:12:53;8.70;;;1.90;;
8857;SDS011;4465;50.904;4.696;2023-09-19T05:15:19;10.57;;;1.98;;
8857;SDS011;4465;50.904;4.696;2023-09-19T05:17:48;10.75;;;2.05;;
8857;SDS011;4465;50.904;4.696;2023-09-19T05:20:20;12.15;;;1.98;;
8857;SDS011;4465;50.904;4.696;2023-09-19T05:23:06;13.48;;;2.00;;
8857;SDS011;4465;50.904;4.696;2023-09-19T05:25:36;17.10;;;1.80;;
8857;SDS011;4465;50.904;4.696;2023-09-19T05:28:04;14.25;;;1.95;;
8857;SDS011;4465;50.904;4.696;2023-09-19T05:30:34;9.98;;;2.22;;
8857;SDS011;4465;50.904;4.696;2023-09-19T05:33:09;9.30;;;2.03;;
8857;SDS011;4465;50.904;4.696;2023-09-19T05:35:37;9.23;;;1.73;;
8857;SDS011;4465;50.904;4.696;2023-09-19T05:38:05;12.18;;;2.13;;
8857;SDS011;4465;50.904;4.696;2023-09-19T05:40:34;7.95;;;2.05;;
8857;SDS011;4465;50.904;4.696;2023-09-19T05:43:03;8.00;;;1.75;;
8857;SDS011;4465;50.904;4.696;2023-09-19T05:45:31;10.77;;;2.17;;
8857;SDS011;4465;50.904;4.696;2023-09-19T05:48:05;9.18;;;2.20;;
8857;SDS011;4465;50.904;4.696;2023-09-19T05:50:33;17.67;;;2.05;;
8857;SDS011;4465;50.904;4.696;2023-09-19T05:52:59;13.57;;;2.17;;
8857;SDS011;4465;50.904;4.696;2023-09-19T05:55:25;8.68;;;2.30;;
8857;SDS011;4465;50.904;4.696;2023-09-19T05:57:51;10.50;;;1.98;;
8857;SDS011;4465;50.904;4.696;2023-09-19T06:00:21;11.53;;;2.00;;
8857;SDS011;4465;50.904;4.696;2023-09-19T06:02:53;11.55;;;1.88;;
8857;SDS011;4465;50.904;4.696;2023-09-19T06:05:20;4.80;;;1.73;;
8857;SDS011;4465;50.904;4.696;2023-09-19T06:07:46;5.93;;;1.55;;
8857;SDS011;4465;50.904;4.696;2023-09-19T06:10:12;9.88;;;1.85;;
8857;SDS011;4465;50.904;4.696;2023-09-19T06:12:40;9.27;;;2.17;;
8857;SDS011;4465;50.904;4.696;2023-09-19T06:15:10;9.63;;;1.88;;
8857;SDS011;4465;50.904;4.696;2023-09-19T06:20:16;10.20;;;1.70;;
8857;SDS011;4465;50.904;4.696;2023-09-19T06:22:43;12.65;;;2.00;;
8857;SDS011;4465;50.904;4.696;2023-09-19T06:25:10;7.72;;;2.05;;
8857;SDS011;4465;50.904;4.696;2023-09-19T06:27:38;6.57;;;1.95;;
8857;SDS011;4465;50.904;4.696;2023-09-19T06:30:07;10.38;;;2.15;;
8857;SDS011;4465;50.904;4.696;2023-09-19T06:32:34;10.65;;;2.25;;
8857;SDS011;4465;50.904;4.696;2023-09-19T06:35:00;10.82;;;1.85;;
8857;SDS011;4465;50.904;4.696;2023-09-19T06:37:27;8.70;;;2.08;;
8857;SDS011;4465;50.904;4.696;2023-09-19T06:39:56;7.10;;;1.83;;
8857;SDS011;4465;50.904;4.696;2023-09-19T06:42:22;11.75;;;1.98;;
8857;SDS011;4465;50.904;4.696;2023-09-19T06:44:49;6.13;;;1.80;;
8857;SDS011;4465;50.904;4.696;2023-09-19T06:47:15;9.95;;;2.05;;
8857;SDS011;4465;50.904;4.696;2023-09-19T06:49:43;10.35;;;2.03;;
8857;SDS011;4465;50.904;4.696;2023-09-19T06:52:09;7.65;;;2.08;;
8857;SDS011;4465;50.904;4.696;2023-09-19T06:54:35;6.93;;;1.77;;
8857;SDS011;4465;50.904;4.696;2023-09-19T06:57:07;10.98;;;2.33;;
8857;SDS011;4465;50.904;4.696;2023-09-19T06:59:35;7.75;;;1.70;;
8857;SDS011;4465;50.904;4.696;2023-09-19T07:02:04;6.65;;;1.83;;
8857;SDS011;4465;50.904;4.696;2023-09-19T07:04:31;6.95;;;1.42;;
8857;SDS011;4465;50.904;4.696;2023-09-19T07:06:57;10.93;;;1.73;;
8857;SDS011;4465;50.904;4.696;2023-09-19T07:09:23;12.00;;;2.08;;
8857;SDS011;4465;50.904;4.696;2023-09-19T07:11:52;8.68;;;2.08;;
8857;SDS011;4465;50.904;4.696;2023-09-19T07:14:21;7.13;;;1.83;;
8857;SDS011;4465;50.904;4.696;2023-09-19T07:16:47;11.13;;;2.22;;
8857;SDS011;4465;50.904;4.696;2023-09-19T07:19:14;9.05;;;2.30;;
8857;SDS011;4465;50.904;4.696;2023-09-19T07:21:40;7.03;;;1.58;;
8857;SDS011;4465;50.904;4.696;2023-09-19T07:24:08;5.60;;;1.75;;
8857;SDS011;4465;50.904;4.696;2023-09-19T07:26:36;9.27;;;1.90;;
8857;SDS011;4465;50.904;4.696;2023-09-19T07:29:02;14.10;;;1.77;;
8857;SDS011;4465;50.904;4.696;2023-09-19T07:31:29;5.97;;;1.40;;
8857;SDS011;4465;50.904;4.696;2023-09-19T07:33:58;7.72;;;1.90;;
8857;SDS011;4465;50.904;4.696;2023-09-19T07:36:31;12.35;;;2.22;;
8857;SDS011;4465;50.904;4.696;2023-09-19T07:39:05;9.30;;;1.85;;
8857;SDS011;4465;50.904;4.696;2023-09-19T07:41:33;7.80;;;1.85;;
8857;SDS011;4465;50.904;4.696;2023-09-19T07:44:02;13.18;;;2.00;;
8857;SDS011;4465;50.904;4.696;2023-09-19T07:46:28;8.20;;;1.70;;
8857;SDS011;4465;50.904;4.696;2023-09-19T07:48:58;6.90;;;2.00;;
8857;SDS011;4465;50.904;4.696;2023-09-19T07:51:26;8.13;;;1.83;;
8857;SDS011;4465;50.904;4.696;2023-09-19T07:53:52;8.45;;;1.83;;
8857;SDS011;4465;50.904;4.696;2023-09-19T07:56:20;6.30;;;1.50;;
8857;SDS011;4465;50.904;4.696;2023-09-19T07:58:52;10.45;;;1.63;;
8857;SDS011;4465;50.904;4.696;2023-09-19T08:01:18;12.25;;;2.05;;
8857;SDS011;4465;50.904;4.696;2023-09-19T08:03:44;14.48;;;2.50;;
8857;SDS011;4465;50.904;4.696;2023-09-19T08:06:10;9.55;;;2.60;;
8857;SDS011;4465;50.904;4.696;2023-09-19T08:08:38;11.10;;;2.03;;
8857;SDS011;4465;50.904;4.696;2023-09-19T08:11:04;11.70;;;1.92;;
8857;SDS011;4465;50.904;4.696;2023-09-19T08:13:38;8.93;;;2.00;;
8857;SDS011;4465;50.904;4.696;2023-09-19T08:18:46;7.60;;;1.90;;
8857;SDS011;4465;50.904;4.696;2023-09-19T08:21:13;9.25;;;1.88;;
8857;SDS011;4465;50.904;4.696;2023-09-19T08:23:40;10.60;;;2.17;;
8857;SDS011;4465;50.904;4.696;2023-09-19T08:26:09;5.57;;;2.03;;
8857;SDS011;4465;50.904;4.696;2023-09-19T08:28:37;8.43;;;1.58;;
8857;SDS011;4465;50.904;4.696;2023-09-19T08:31:06;15.38;;;2.72;;
8857;SDS011;4465;50.904;4.696;2023-09-19T08:33:34;7.55;;;1.70;;
8857;SDS011;4465;50.904;4.696;2023-09-19T08:36:03;7.20;;;1.95;;
8857;SDS011;4465;50.904;4.696;2023-09-19T08:38:33;7.57;;;1.98;;
8857;SDS011;4465;50.904;4.696;2023-09-19T08:41:01;11.20;;;1.83;;
8857;SDS011;4465;50.904;4.696;2023-09-19T08:43:31;11.32;;;1.92;;
8857;SDS011;4465;50.904;4.696;2023-09-19T08:46:20;12.85;;;2.33;;
8857;SDS011;4465;50.904;4.696;2023-09-19T08:48:47;6.80;;;1.50;;
8857;SDS011;4465;50.904;4.696;2023-09-19T08:51:33;12.27;;;2.15;;
8857;SDS011;4465;50.904;4.696;2023-09-19T08:54:11;13.60;;;2.38;;
8857;SDS011;4465;50.904;4.696;2023-09-19T08:59:13;11.98;;;1.92;;
8857;SDS011;4465;50.904;4.696;2023-09-19T09:01:43;11.50;;;2.40;;
8857;SDS011;4465;50.904;4.696;2023-09-19T09:04:11;12.75;;;2.95;;
8857;SDS011;4465;50.904;4.696;2023-09-19T09:06:38;11.77;;;2.67;;
8857;SDS011;4465;50.904;4.696;2023-09-19T09:09:08;12.38;;;2.63;;
8857;SDS011;4465;50.904;4.696;2023-09-19T09:14:05;9.48;;;1.63;;
8857;SDS011;4465;50.904;4.696;2023-09-19T09:16:34;7.65;;;2.13;;
8857;SDS011;4465;50.904;4.696;2023-09-19T09:19:00;5.30;;;1.48;;
8857;SDS011;4465;50.904;4.696;2023-09-19T09:21:27;8.63;;;1.85;;
8857;SDS011;4465;50.904;4.696;2023-09-19T09:23:53;7.82;;;1.80;;
8857;SDS011;4465;50.904;4.696;2023-09-19T09:29:12;10.80;;;1.83;;
8857;SDS011;4465;50.904;4.696;2023-09-19T09:31:41;12.10;;;2.05;;
8857;SDS011;4465;50.904;4.696;2023-09-19T09:34:08;9.80;;;1.60;;
8857;SDS011;4465;50.904;4.696;2023-09-19T09:36:37;16.10;;;2.13;;
8857;SDS011;4465;50.904;4.696;2023-09-19T09:39:06;5.30;;;1.92;;
8857;SDS011;4465;50.904;4.696;2023-09-19T09:41:50;7.07;;;1.63;;
8857;SDS011;4465;50.904;4.696;2023-09-19T09:44:17;9.85;;;1.73;;
8857;SDS011;4465;50.904;4.696;2023-09-19T09:46:46;7.65;;;1.95;;
8857;SDS011;4465;50.904;4.696;2023-09-19T09:49:22;9.02;;;1.60;;
8857;SDS011;4465;50.904;4.696;2023-09-19T09:52:05;10.15;;;2.00;;
8857;SDS011;4465;50.904;4.696;2023-09-19T09:54:33;5.90;;;1.55;;
8857;SDS011;4465;50.904;4.696;2023-09-19T09:57:09;7.75;;;1.60;;
8857;SDS011;4465;50.904;4.696;2023-09-19T10:02:14;8.93;;;1.65;;
8857;SDS011;4465;50.904;4.696;2023-09-19T10:04:48;9.05;;;1.80;;
8857;SDS011;4465;50.904;4.696;2023-09-19T10:07:27;8.30;;;1.63;;
8857;SDS011;4465;50.904;4.696;2023-09-19T10:10:07;5.20;;;1.13;;
8857;SDS011;4465;50.904;4.696;2023-09-19T10:12:45;6.68;;;1.55;;
8857;SDS011;4465;50.904;4.696;2023-09-19T10:15:18;4.63;;;1.25;;
8857;SDS011;4465;50.904;4.696;2023-09-19T10:17:50;8.00;;;1.45;;
8857;SDS011;4465;50.904;4.696;2023-09-19T10:20:23;8.50;;;1.23;;
8857;SDS011;4465;50.904;4.696;2023-09-19T10:23:05;2.67;;;1.05;;
8857;SDS011;4465;50.904;4.696;2023-09-19T10:25:39;10.85;;;1.52;;
8857;SDS011;4465;50.904;4.696;2023-09-19T10:28:07;4.88;;;1.40;;
8857;SDS011;4465;50.904;4.696;2023-09-19T10:33:17;6.30;;;1.30;;
8857;SDS011;4465;50.904;4.696;2023-09-19T10:35:48;4.63;;;1.05;;
8857;SDS011;4465;50.904;4.696;2023-09-19T10:38:19;4.32;;;1.17;;
8857;SDS011;4465;50.904;4.696;2023-09-19T10:40:49;6.85;;;1.42;;
8857;SDS011;4465;50.904;4.696;2023-09-19T10:43:17;3.72;;;1.45;;
8857;SDS011;4465;50.904;4.696;2023-09-19T10:45:47;5.82;;;1.08;;
8857;SDS011;4465;50.904;4.696;2023-09-19T10:48:18;11.32;;;2.17;;
8857;SDS011;4465;50.904;4.696;2023-09-19T10:53:24;5.43;;;0.77;;
8857;SDS011;4465;50.904;4.696;2023-09-19T10:55:59;5.25;;;1.15;;
8857;SDS011;4465;50.904;4.696;2023-09-19T10:58:35;4.78;;;1.00;;
8857;SDS011;4465;50.904;4.696;2023-09-19T11:01:04;5.47;;;1.35;;
8857;SDS011;4465;50.904;4.696;2023-09-19T11:03:41;6.10;;;1.20;;
8857;SDS011;4465;50.904;4.696;2023-09-19T11:06:15;2.72;;;0.73;;
8857;SDS011;4465;50.904;4.696;2023-09-19T11:11:47;4.50;;;0.80;;
8857;SDS011;4465;50.904;4.696;2023-09-19T11:30:43;1.58;;;0.70;;
8857;SDS011;4465;50.904;4.696;2023-09-19T11:33:29;4.03;;;1.15;;
8857;SDS011;4465;50.904;4.696;2023-09-19T11:36:11;3.03;;;1.00;;
8857;SDS011;4465;50.904;4.696;2023-09-19T11:49:18;4.60;;;1.20;;
8857;SDS011;4465;50.904;4.696;2023-09-19T11:51:52;3.78;;;0.80;;
8857;SDS011;4465;50.904;4.696;2023-09-19T11:54:18;4.38;;;1.00;;
8857;SDS011;4465;50.904;4.696;2023-09-19T11:56:52;4.68;;;1.02;;
8857;SDS011;4465;50.904;4.696;2023-09-19T11:59:23;2.47;;;0.70;;
8857;SDS011;4465;50.904;4.696;2023-09-19T12:01:54;4.30;;;0.93;;
8857;SDS011;4465;50.904;4.696;2023-09-19T12:04:43;1.85;;;0.77;;
8857;SDS011;4465;50.904;4.696;2023-09-19T12:07:11;5.55;;;0.80;;
8857;SDS011;4465;50.904;4.696;2023-09-19T12:09:41;3.58;;;0.68;;
8857;SDS011;4465;50.904;4.696;2023-09-19T12:14:52;4.10;;;1.00;;
8857;SDS011;4465;50.904;4.696;2023-09-19T12:17:21;4.63;;;0.93;;
8857;SDS011;4465;50.904;4.696;2023-09-19T12:19:51;1.90;;;0.77;;
8857;SDS011;4465;50.904;4.696;2023-09-19T12:22:21;8.25;;;1.10;;
8857;SDS011;4465;50.904;4.696;2023-09-19T12:24:47;4.93;;;1.05;;
8857;SDS011;4465;50.904;4.696;2023-09-19T12:27:16;1.23;;;0.65;;
8857;SDS011;4465;50.904;4.696;2023-09-19T12:29:42;3.75;;;0.98;;
8857;SDS011;4465;50.904;4.696;2023-09-19T12:32:33;4.18;;;1.00;;
8857;SDS011;4465;50.904;4.696;2023-09-19T12:35:08;3.53;;;0.60;;
8857;SDS011;4465;50.904;4.696;2023-09-19T12:37:36;3.50;;;0.80;;
8857;SDS011;4465;50.904;4.696;2023-09-19T12:40:11;1.73;;;0.60;;
8857;SDS011;4465;50.904;4.696;2023-09-19T12:42:43;8.02;;;0.85;;
8857;SDS011;4465;50.904;4.696;2023-09-19T12:45:12;4.07;;;1.10;;
8857;SDS011;4465;50.904;4.696;2023-09-19T12:53:56;2.45;;;0.75;;
8857;SDS011;4465;50.904;4.696;2023-09-19T12:56:27;5.65;;;0.90;;
8857;SDS011;4465;50.904;4.696;2023-09-19T12:59:04;3.47;;;0.77;;
8857;SDS011;4465;50.904;4.696;2023-09-19T13:01:35;5.15;;;0.90;;
8857;SDS011;4465;50.904;4.696;2023-09-19T13:04:14;6.53;;;1.05;;
8857;SDS011;4465;50.904;4.696;2023-09-19T13:06:47;4.32;;;1.38;;
8857;SDS011;4465;50.904;4.696;2023-09-19T13:09:21;2.38;;;0.73;;
8857;SDS011;4465;50.904;4.696;2023-09-19T13:11:50;3.85;;;0.75;;
8857;SDS011;4465;50.904;4.696;2023-09-19T13:14:28;4.03;;;1.15;;
8857;SDS011;4465;50.904;4.696;2023-09-19T13:17:02;5.32;;;1.13;;
8857;SDS011;4465;50.904;4.696;2023-09-19T13:19:44;6.55;;;0.80;;
8857;SDS011;4465;50.904;4.696;2023-09-19T13:22:41;5.13;;;0.77;;
8857;SDS011;4465;50.904;4.696;2023-09-19T13:25:15;3.05;;;1.15;;
8857;SDS011;4465;50.904;4.696;2023-09-19T13:27:46;4.57;;;1.15;;
8857;SDS011;4465;50.904;4.696;2023-09-19T13:30:23;3.88;;;1.00;;
8857;SDS011;4465;50.904;4.696;2023-09-19T13:32:50;3.65;;;1.13;;
8857;SDS011;4465;50.904;4.696;2023-09-19T13:35:18;2.05;;;0.70;;
8857;SDS011;4465;50.904;4.696;2023-09-19T13:37:45;6.57;;;1.50;;
8857;SDS011;4465;50.904;4.696;2023-09-19T13:40:16;3.78;;;0.95;;
8857;SDS011;4465;50.904;4.696;2023-09-19T13:42:45;1.83;;;0.70;;
8857;SDS011;4465;50.904;4.696;2023-09-19T13:45:13;2.40;;;0.60;;
8857;SDS011;4465;50.904;4.696;2023-09-19T13:47:42;4.20;;;0.73;;
8857;SDS011;4465;50.904;4.696;2023-09-19T13:50:08;2.53;;;1.00;;
8857;SDS011;4465;50.904;4.696;2023-09-19T13:52:34;4.25;;;1.30;;
8857;SDS011;4465;50.904;4.696;2023-09-19T13:55:05;3.05;;;0.90;;
8857;SDS011;4465;50.904;4.696;2023-09-19T13:57:32;4.18;;;1.02;;
8857;SDS011;4465;50.904;4.696;2023-09-19T13:59:58;4.17;;;0.80;;
8857;SDS011;4465;50.904;4.696;2023-09-19T14:02:27;2.67;;;0.77;;
8857;SDS011;4465;50.904;4.696;2023-09-19T14:04:53;3.53;;;0.80;;
8857;SDS011;4465;50.904;4.696;2023-09-19T14:07:23;4.55;;;0.82;;
8857;SDS011;4465;50.904;4.696;2023-09-19T14:09:51;3.10;;;0.80;;
8857;SDS011;4465;50.904;4.696;2023-09-19T14:12:21;3.20;;;0.82;;
8857;SDS011;4465;50.904;4.696;2023-09-19T14:14:47;2.47;;;0.80;;
8857;SDS011;4465;50.904;4.696;2023-09-19T14:17:12;6.38;;;1.33;;
8857;SDS011;4465;50.904;4.696;2023-09-19T14:19:40;10.65;;;1.60;;
8857;SDS011;4465;50.904;4.696;2023-09-19T14:22:09;2.05;;;0.82;;
8857;SDS011;4465;50.904;4.696;2023-09-19T14:27:01;1.25;;;0.75;;
8857;SDS011;4465;50.904;4.696;2023-09-19T14:29:29;5.90;;;1.20;;
8857;SDS011;4465;50.904;4.696;2023-09-19T14:34:23;7.93;;;1.35;;
8857;SDS011;4465;50.904;4.696;2023-09-19T14:36:50;2.88;;;0.90;;
8857;SDS011;4465;50.904;4.696;2023-09-19T14:39:17;2.05;;;0.75;;
8857;SDS011;4465;50.904;4.696;2023-09-19T14:41:45;3.75;;;1.00;;
8857;SDS011;4465;50.904;4.696;2023-09-19T14:44:13;5.88;;;1.20;;
8857;SDS011;4465;50.904;4.696;2023-09-19T14:46:44;7.00;;;0.93;;
8857;SDS011;4465;50.904;4.696;2023-09-19T14:49:10;5.80;;;1.15;;
8857;SDS011;4465;50.904;4.696;2023-09-19T14:51:37;4.03;;;1.27;;
8857;SDS011;4465;50.904;4.696;2023-09-19T14:54:09;2.78;;;1.00;;
8857;SDS011;4465;50.904;4.696;2023-09-19T14:56:35;6.05;;;1.08;;
8857;SDS011;4465;50.904;4.696;2023-09-19T14:59:03;3.08;;;1.15;;
8857;SDS011;4465;50.904;4.696;2023-09-19T15:01:29;5.70;;;1.65;;
8857;SDS011;4465;50.904;4.696;2023-09-19T15:03:57;3.13;;;0.80;;
8857;SDS011;4465;50.904;4.696;2023-09-19T15:06:26;2.25;;;0.90;;
8857;SDS011;4465;50.904;4.696;2023-09-19T15:08:52;2.40;;;1.20;;
8857;SDS011;4465;50.904;4.696;2023-09-19T15:11:18;5.60;;;1.20;;
8857;SDS011;4465;50.904;4.696;2023-09-19T15:13:48;3.70;;;1.00;;
8857;SDS011;4465;50.904;4.696;2023-09-19T15:16:16;5.18;;;1.27;;
8857;SDS011;4465;50.904;4.696;2023-09-19T15:19:04;7.90;;;2.40;;
8857;SDS011;4465;50.904;4.696;2023-09-19T15:21:32;5.00;;;1.23;;
8857;SDS011;4465;50.904;4.696;2023-09-19T15:23:58;3.95;;;1.15;;
8857;SDS011;4465;50.904;4.696;2023-09-19T15:26:24;3.90;;;1.10;;
8857;SDS011;4465;50.904;4.696;2023-09-19T15:28:50;4.28;;;1.20;;
8857;SDS011;4465;50.904;4.696;2023-09-19T15:31:19;4.10;;;1.70;;
8857;SDS011;4465;50.904;4.696;2023-09-19T15:33:48;4.28;;;1.42;;
8857;SDS011;4465;50.904;4.696;2023-09-19T15:36:15;5.88;;;1.70;;
8857;SDS011;4465;50.904;4.696;2023-09-19T15:41:27;4.90;;;1.98;;
8857;SDS011;4465;50.904;4.696;2023-09-19T15:43:57;6.70;;;1.70;;
8857;SDS011;4465;50.904;4.696;2023-09-19T15:46:24;3.97;;;1.50;;
8857;SDS011;4465;50.904;4.696;2023-09-19T15:48:54;4.03;;;1.25;;
8857;SDS011;4465;50.904;4.696;2023-09-19T15:51:22;2.80;;;1.00;;
8857;SDS011;4465;50.904;4.696;2023-09-19T15:53:49;3.15;;;1.13;;
8857;SDS011;4465;50.904;4.696;2023-09-19T15:56:19;4.32;;;1.20;;
8857;SDS011;4465;50.904;4.696;2023-09-19T15:58:51;5.68;;;1.20;;
8857;SDS011;4465;50.904;4.696;2023-09-19T16:01:21;3.42;;;1.23;;
8857;SDS011;4465;50.904;4.696;2023-09-19T16:03:49;5.20;;;1.10;;
8857;SDS011;4465;50.904;4.696;2023-09-19T16:06:28;2.60;;;0.93;;
8857;SDS011;4465;50.904;4.696;2023-09-19T16:08:57;7.65;;;1.33;;
8857;SDS011;4465;50.904;4.696;2023-09-19T16:11:24;4.28;;;1.10;;
8857;SDS011;4465;50.904;4.696;2023-09-19T16:13:53;3.78;;;1.00;;
8857;SDS011;4465;50.904;4.696;2023-09-19T16:16:23;4.32;;;1.40;;
8857;SDS011;4465;50.904;4.696;2023-09-19T16:18:53;4.55;;;1.23;;
8857;SDS011;4465;50.904;4.696;2023-09-19T16:21:29;3.78;;;1.20;;
8857;SDS011;4465;50.904;4.696;2023-09-19T16:23:57;7.20;;;1.00;;
8857;SDS011;4465;50.904;4.696;2023-09-19T16:26:26;4.53;;;1.15;;
8857;SDS011;4465;50.904;4.696;2023-09-19T16:28:54;3.95;;;1.05;;
8857;SDS011;4465;50.904;4.696;2023-09-19T16:31:25;6.63;;;1.52;;
8857;SDS011;4465;50.904;4.696;2023-09-19T16:33:53;2.35;;;1.00;;
8857;SDS011;4465;50.904;4.696;2023-09-19T16:36:24;2.63;;;0.90;;
8857;SDS011;4465;50.904;4.696;2023-09-19T16:38:50;5.13;;;1.10;;
8857;SDS011;4465;50.904;4.696;2023-09-19T16:41:17;2.63;;;1.10;;
8857;SDS011;4465;50.904;4.696;2023-09-19T16:43:46;5.85;;;1.27;;
8857;SDS011;4465;50.904;4.696;2023-09-19T16:46:12;2.92;;;1.10;;
8857;SDS011;4465;50.904;4.696;2023-09-19T16:48:44;4.22;;;1.38;;
8857;SDS011;4465;50.904;4.696;2023-09-19T16:51:11;5.45;;;2.15;;
8857;SDS011;4465;50.904;4.696;2023-09-19T16:53:39;3.40;;;1.30;;
8857;SDS011;4465;50.904;4.696;2023-09-19T16:58:39;3.13;;;1.05;;
8857;SDS011;4465;50.904;4.696;2023-09-19T17:01:11;4.13;;;1.27;;
8857;SDS011;4465;50.904;4.696;2023-09-19T17:03:41;4.32;;;1.27;;
8857;SDS011;4465;50.904;4.696;2023-09-19T17:06:08;5.47;;;1.80;;
8857;SDS011;4465;50.904;4.696;2023-09-19T17:08:38;5.75;;;1.10;;